.
WxDataArchive / Data Records for 2014-11-03
2014-11-02 November 2014 2014-11-04

Data Records for Monday, 03 November 2014

Time	Temp	Chill	HIndex	Humid	Dewpt	 Wind 	HiWind	WindDir	Rain 	Barom
-----	----	-----	------	-----	-----	------	------	-------	-----	-----
00:00	37.3	37.3	37.3	51	20.9	0	0	---	0.00	30.295 
00:05	37.2	37.2	37.2	52	21.2	0	0	---	0.00	30.295 
00:10	37.2	37.2	37.2	52	21.2	0	0	---	0.00	30.295 
00:15	37.2	37.2	37.2	53	21.7	0	0	---	0.00	30.291 
00:20	37.2	37.2	37.2	53	21.7	0	0	---	0.00	30.291 
00:25	37.3	37.3	37.3	53	21.8	0	0	---	0.00	30.291 
00:30	37.6	37.6	37.6	53	22.0	0	0	---	0.00	30.285 
00:35	37.8	37.8	37.8	53	22.2	0	0	---	0.00	30.285 
00:40	38.0	38.0	38.0	52	22.0	0	1	90	0.00	30.285 
00:45	38.5	38.5	38.5	52	22.4	0	0	---	0.00	30.281 
00:50	38.8	38.8	38.8	51	22.2	0	1	90	0.00	30.281 
00:55	39.1	39.1	39.1	50	22.0	0	1	90	0.00	30.281 
01:00	39.3	39.3	39.3	50	22.2	0	1	90	0.00	30.276 
01:05	39.9	39.9	39.9	48	21.8	0	1	90	0.00	30.276 
01:10	40.2	40.2	40.2	48	22.1	0	1	90	0.00	30.276 
01:15	40.5	40.5	40.5	48	22.4	0	1	90	0.00	30.272 
01:20	40.6	40.6	40.6	48	22.5	0	1	90	0.00	30.272 
01:25	40.8	40.8	40.8	48	22.6	0	2	90	0.00	30.272 
01:30	40.9	40.9	40.9	47	22.2	0	1	90	0.00	30.269 
01:35	41.1	41.1	41.1	47	22.4	0	2	90	0.00	30.269 
01:40	41.2	41.2	41.2	46	22.0	0	3	90	0.00	30.269 
01:45	41.5	41.5	41.5	46	22.3	0	2	90	0.00	30.265 
01:50	41.5	41.5	41.5	46	22.3	0	2	90	0.00	30.265 
01:55	41.6	41.6	41.6	47	22.9	0	2	90	0.00	30.265 
02:00	41.6	41.6	41.6	47	22.9	0	3	90	0.00	30.258 
02:05	41.6	41.6	41.6	47	22.9	0	1	90	0.00	30.258 
02:10	41.8	41.8	41.8	47	23.1	0	1	90	0.00	30.258 
02:15	41.8	41.8	41.8	47	23.1	0	1	90	0.00	30.263 
02:20	41.8	41.8	41.8	46	22.6	0	2	90	0.00	30.263 
02:25	41.8	41.8	41.8	47	23.1	0	2	90	0.00	30.263 
02:30	41.8	41.8	41.8	47	23.1	0	1	90	0.00	30.260 
02:35	41.8	41.8	41.8	48	23.6	0	1	90	0.00	30.260 
02:40	41.8	41.8	41.8	47	23.1	0	2	90	0.00	30.260 
02:45	41.8	41.8	41.8	48	23.6	0	1	90	0.00	30.254 
02:50	41.8	41.8	41.8	48	23.6	0	2	90	0.00	30.254 
02:55	41.8	41.8	41.8	48	23.6	0	1	90	0.00	30.254 
03:00	41.8	41.8	41.8	49	24.1	0	1	90	0.00	30.251 
03:05	41.8	41.8	41.8	48	23.6	0	1	90	0.00	30.251 
03:10	41.8	41.8	41.8	49	24.1	0	2	90	0.00	30.251 
03:15	41.8	41.8	41.8	49	24.1	0	1	90	0.00	30.248 
03:20	41.8	41.8	41.8	50	24.5	0	1	90	0.00	30.248 
03:25	41.8	41.8	41.8	50	24.5	0	2	90	0.00	30.248 
03:30	41.9	41.9	41.9	50	24.6	0	1	90	0.00	30.243 
03:35	41.9	41.9	41.9	49	24.1	0	2	90	0.00	30.243 
03:40	41.9	41.9	41.9	49	24.1	0	2	90	0.00	30.243 
03:45	42.1	42.1	42.1	49	24.3	0	3	90	0.00	30.237 
03:50	42.2	42.2	42.2	49	24.4	0	2	90	0.00	30.237 
03:55	42.3	42.3	42.3	48	24.0	0	3	90	0.00	30.237 
04:00	42.5	42.5	42.5	48	24.2	0	2	90	0.00	30.235 
04:05	42.6	42.6	42.6	48	24.3	0	1	90	0.00	30.235 
04:10	42.6	42.6	42.6	48	24.3	1	4	292	0.00	30.235 
04:15	42.8	42.8	42.8	47	24.0	0	1	292	0.00	30.234 
04:20	42.9	42.9	42.9	46	23.6	1	3	292	0.00	30.234 
04:25	42.9	42.9	42.9	46	23.6	1	3	292	0.00	30.234 
04:30	43.1	43.1	43.1	47	24.3	0	2	292	0.00	30.233 
04:35	43.1	43.1	43.1	46	23.7	1	3	248	0.00	30.233 
04:40	43.2	43.2	43.2	46	23.8	0	1	248	0.00	30.233 
04:45	43.2	43.2	43.2	46	23.8	1	3	248	0.00	30.232 
04:50	43.3	43.3	43.3	46	23.9	1	4	248	0.00	30.232 
04:55	43.3	43.3	43.3	46	23.9	0	2	248	0.00	30.232 
05:00	43.3	43.3	43.3	46	23.9	0	2	248	0.00	30.229 
05:05	43.5	43.5	43.5	45	23.6	1	2	248	0.00	30.229 
05:10	43.6	43.6	43.6	46	24.2	1	2	248	0.00	30.229 
05:15	43.8	43.8	43.8	45	23.9	0	2	248	0.00	30.235 
05:20	43.9	43.9	43.9	45	23.9	0	2	248	0.00	30.235 
05:25	44.1	44.1	44.1	45	24.1	0	2	248	0.00	30.235 
05:30	44.1	44.1	44.1	45	24.1	0	2	248	0.00	30.237 
05:35	44.2	44.2	44.2	45	24.2	1	3	248	0.00	30.237 
05:40	44.3	44.3	44.3	44	23.8	1	7	248	0.00	30.237 
05:45	44.5	44.5	44.5	44	24.0	0	2	270	0.00	30.229 
05:50	44.5	44.5	44.5	44	24.0	0	1	270	0.00	30.229 
05:55	44.5	44.5	44.5	44	24.0	0	3	248	0.00	30.229 
06:00	44.5	44.5	44.5	44	24.0	0	3	248	0.00	30.231 
06:05	44.6	44.6	44.6	45	24.6	0	2	248	0.00	30.231 
06:10	44.5	44.5	44.5	44	24.0	0	2	248	0.00	30.231 
06:15	44.5	44.5	44.5	45	24.5	0	3	248	0.00	30.231 
06:20	44.5	44.5	44.5	44	24.0	0	2	248	0.00	30.231 
06:25	44.5	44.5	44.5	44	24.0	0	1	248	0.00	30.231 
06:30	44.5	44.5	44.5	44	24.0	0	3	248	0.00	30.229 
06:35	44.5	44.5	44.5	43	23.4	0	4	248	0.00	30.229 
06:40	44.5	44.5	44.5	44	24.0	0	2	248	0.00	30.229 
06:45	44.3	44.3	44.3	43	23.2	0	2	248	0.00	30.229 
06:50	44.2	44.2	44.2	44	23.7	0	3	270	0.00	30.229 
06:55	44.2	44.2	44.2	44	23.7	0	4	270	0.00	30.229 
07:00	44.2	44.2	44.2	44	23.7	0	2	270	0.00	30.229 
07:05	44.1	44.1	44.1	44	23.6	0	1	270	0.00	30.229 
07:10	44.1	44.1	44.1	44	23.6	0	2	270	0.00	30.229 
07:15	44.1	44.1	44.1	44	23.6	0	3	270	0.00	30.229 
07:20	44.1	44.1	44.1	44	23.6	0	4	270	0.00	30.229 
07:25	44.1	44.1	44.1	44	23.6	0	4	270	0.00	30.229 
07:30	44.2	44.2	44.2	44	23.7	0	4	270	0.00	30.229 
07:35	44.2	44.2	44.2	44	23.7	0	2	270	0.00	30.229 
07:40	44.3	44.3	44.3	45	24.3	0	2	270	0.00	30.229 
07:45	44.3	44.3	44.3	45	24.3	0	2	270	0.00	30.228 
07:50	44.3	44.3	44.3	45	24.3	1	6	270	0.00	30.228 
07:55	44.5	44.5	44.5	46	25.0	0	3	68	0.00	30.228 
08:00	44.5	44.5	44.5	45	24.5	0	2	270	0.00	30.225 
08:05	44.6	44.6	44.6	46	25.1	0	2	270	0.00	30.225 
08:10	44.8	44.8	44.8	45	24.8	0	2	270	0.00	30.225 
08:15	45.2	45.2	45.2	45	25.1	0	3	270	0.00	30.215 
08:20	45.7	45.7	45.7	45	25.6	1	5	248	0.00	30.215 
08:25	46.0	46.0	46.0	43	24.8	1	4	248	0.00	30.215 
08:30	46.2	46.2	46.2	43	25.0	0	4	270	0.00	30.215 
08:35	46.5	46.5	46.5	42	24.7	1	5	270	0.00	30.215 
08:40	46.5	46.5	46.5	42	24.7	0	3	270	0.00	30.215 
08:45	46.5	46.5	46.5	42	24.7	0	2	270	0.00	30.212 
08:50	46.8	46.8	46.8	42	24.9	1	4	270	0.00	30.212 
08:55	47.1	47.1	47.1	42	25.2	1	3	248	0.00	30.212 
09:00	47.6	47.6	47.6	41	25.1	1	5	248	0.00	30.208 
09:05	48.0	48.0	48.0	40	24.8	1	5	248	0.00	30.208 
09:10	48.5	48.5	48.5	40	25.3	2	6	248	0.00	30.208 
09:15	48.9	48.9	48.9	39	25.0	2	5	270	0.00	30.205 
09:20	49.2	49.2	49.2	39	25.3	2	6	270	0.00	30.205 
09:25	49.6	49.6	49.6	38	25.0	2	6	270	0.00	30.205 
09:30	50.2	50.2	50.2	37	24.9	2	5	248	0.00	30.192 
09:35	50.5	50.5	50.5	37	25.2	1	4	270	0.00	30.192 
09:40	51.0	51.0	51.0	36	25.0	1	5	248	0.00	30.192 
09:45	51.1	51.1	51.1	35	24.4	2	5	270	0.00	30.192 
09:50	51.4	51.4	51.4	34	24.0	2	6	270	0.00	30.192 
09:55	51.9	51.9	51.9	35	25.1	1	3	270	0.00	30.192 
10:00	52.0	52.0	52.0	35	25.2	2	11	270	0.00	30.189 
10:05	52.2	52.2	52.2	34	24.7	2	6	248	0.00	30.189 
10:10	52.5	52.5	52.5	33	24.2	2	7	248	0.00	30.189 
10:15	52.5	52.5	52.5	32	23.5	3	9	270	0.00	30.185 
10:20	52.6	52.6	52.6	33	24.3	2	6	248	0.00	30.185 
10:25	52.8	52.8	52.8	35	25.9	2	9	270	0.00	30.185 
10:30	53.1	53.1	53.1	33	24.8	2	6	270	0.00	30.182 
10:35	53.3	53.3	53.3	31	23.4	3	10	248	0.00	30.182 
10:40	53.2	53.2	53.2	31	23.4	4	14	270	0.00	30.182 
10:45	53.5	53.5	53.5	32	24.4	2	6	248	0.00	30.177 
10:50	53.8	53.8	53.8	31	23.9	2	7	248	0.00	30.177 
10:55	53.8	53.8	53.8	32	24.6	3	11	248	0.00	30.177 
11:00	53.9	53.9	53.9	32	24.7	1	5	248	0.00	30.173 
11:05	53.9	53.9	53.9	32	24.7	3	11	248	0.00	30.173 
11:10	54.1	54.1	54.1	32	24.9	4	11	248	0.00	30.173 
11:15	54.2	54.2	54.2	33	25.7	1	5	270	0.00	30.166 
11:20	54.5	54.5	54.5	31	24.5	3	13	248	0.00	30.166 
11:25	54.7	54.7	54.7	34	26.9	1	4	248	0.00	30.166 
11:30	55.0	55.0	55.0	33	26.4	2	7	270	0.00	30.158 
11:35	55.3	55.3	55.3	33	26.7	1	5	248	0.00	30.158 
11:40	55.4	55.4	55.4	34	27.5	1	5	248	0.00	30.158 
11:45	55.4	55.4	55.4	33	26.8	2	6	248	0.00	30.154 
11:50	55.4	55.4	55.4	34	27.5	1	3	248	0.00	30.154 
11:55	55.4	55.4	55.4	33	26.8	2	5	248	0.00	30.154 
12:00	55.4	55.4	55.4	34	27.5	1	4	248	0.00	30.142 
12:05	55.6	55.6	55.6	34	27.7	1	4	248	0.00	30.142 
12:10	55.9	55.9	55.9	35	28.7	1	4	248	0.00	30.142 
12:15	56.6	56.6	56.6	36	30.0	1	3	248	0.00	30.137 
12:20	57.3	57.3	57.3	34	29.2	2	5	248	0.00	30.137 
12:25	58.0	58.0	58.0	33	29.1	1	3	248	0.00	30.137 
12:30	58.1	58.1	58.1	33	29.2	1	5	248	0.00	30.131 
12:35	58.0	58.0	58.0	33	29.1	2	7	248	0.00	30.131 
12:40	58.1	58.1	58.1	34	29.9	1	4	248	0.00	30.131 
12:45	58.3	58.3	58.3	33	29.3	2	8	248	0.00	30.122 
12:50	58.3	58.3	58.3	35	30.8	1	6	248	0.00	30.122 
12:55	58.4	58.4	58.4	33	29.4	1	3	248	0.00	30.122 
13:00	58.7	58.7	58.7	35	31.1	1	4	248	0.00	30.108 
13:05	59.0	59.0	59.0	34	30.7	1	3	248	0.00	30.108 
13:10	59.2	59.2	59.2	34	30.8	1	4	248	0.00	30.108 
13:15	59.5	59.5	59.5	36	32.5	1	5	248	0.00	30.099 
13:20	59.8	59.8	59.8	34	31.4	1	4	270	0.00	30.099 
13:25	60.2	60.2	60.2	34	31.7	0	4	248	0.00	30.099 
13:30	60.9	60.9	60.9	34	32.3	1	4	270	0.00	30.096 
13:35	61.2	61.2	61.2	34	32.6	2	5	248	0.00	30.096 
13:40	61.0	61.0	61.0	34	32.4	2	7	270	0.00	30.096 
13:45	61.0	61.0	61.0	34	32.4	2	4	270	0.00	30.095 
13:50	61.0	61.0	61.0	33	31.7	1	6	248	0.00	30.095 
13:55	60.7	60.7	60.7	33	31.4	2	5	248	0.00	30.095 
14:00	60.9	60.9	60.9	34	32.3	1	3	248	0.00	30.088 
14:05	60.7	60.7	60.7	33	31.4	2	6	248	0.00	30.088 
14:10	60.5	60.5	60.5	33	31.3	2	5	270	0.00	30.088 
14:15	60.5	60.5	60.5	35	32.7	1	3	270	0.00	30.084 
14:20	60.9	60.9	60.9	35	33.1	1	3	248	0.00	30.084 
14:25	61.0	61.0	61.0	34	32.4	1	4	248	0.00	30.084 
14:30	61.0	61.0	61.0	33	31.7	1	5	248	0.00	30.081 
14:35	61.2	61.2	61.2	34	32.6	1	4	248	0.00	30.081 
14:40	61.6	61.6	61.6	33	32.2	1	3	248	0.00	30.081 
14:45	62.0	62.0	62.0	32	31.8	2	6	248	0.00	30.073 
14:50	62.1	62.1	62.1	33	32.7	1	4	270	0.00	30.073 
14:55	62.3	62.3	62.3	33	32.8	1	3	270	0.00	30.073 
15:00	62.4	62.4	62.4	33	32.9	1	4	248	0.00	30.067 
15:05	62.6	62.6	62.6	34	33.8	0	2	248	0.00	30.067 
15:10	62.6	62.6	62.6	33	33.1	1	3	248	0.00	30.067 
15:15	62.6	62.6	62.6	33	33.1	1	3	248	0.00	30.064 
15:20	62.4	62.4	62.4	33	32.9	0	2	248	0.00	30.064 
15:25	62.4	62.4	62.4	35	34.4	0	1	248	0.00	30.064 
15:30	62.6	62.6	62.6	35	34.6	0	3	248	0.00	30.064 
15:35	62.9	62.9	62.9	35	34.8	0	2	248	0.00	30.064 
15:40	62.9	62.9	62.9	34	34.1	1	3	248	0.00	30.064 
15:45	62.7	62.7	62.7	35	34.7	0	2	248	0.00	30.064 
15:50	62.7	62.7	62.7	35	34.7	1	3	248	0.00	30.064 
15:55	62.9	62.9	62.9	36	35.5	1	3	248	0.00	30.064 
16:00	63.2	63.2	63.2	35	35.1	1	4	248	0.00	30.063 
16:05	63.4	63.4	63.4	36	36.0	0	4	248	0.00	30.063 
16:10	63.2	63.2	63.2	36	35.8	1	3	248	0.00	30.063 
16:15	63.1	63.1	63.1	38	37.1	0	1	248	0.00	30.061 
16:20	62.9	62.9	62.9	37	36.2	0	2	248	0.00	30.061 
16:25	63.1	63.1	63.1	36	35.7	1	3	248	0.00	30.061 
16:30	63.2	63.2	63.2	35	35.1	0	4	248	0.00	30.056 
16:35	63.2	63.2	63.2	34	34.4	1	5	248	0.00	30.056 
16:40	63.2	63.2	63.2	34	34.4	1	4	248	0.00	30.056 
16:45	63.1	63.1	63.1	33	33.5	1	4	248	0.00	30.058 
16:50	62.9	62.9	62.9	32	32.6	1	5	248	0.00	30.058 
16:55	62.7	62.7	62.7	33	33.2	1	6	270	0.00	30.058 
17:00	62.6	62.6	62.6	32	32.3	1	5	270	0.00	30.058 
17:05	62.4	62.4	62.4	32	32.2	0	2	248	0.00	30.058 
17:10	62.3	62.3	62.3	32	32.1	1	3	248	0.00	30.058 
17:15	62.0	62.0	62.0	32	31.8	0	3	248	0.00	30.060 
17:20	61.8	61.8	61.8	29	29.2	1	3	248	0.00	30.060 
17:25	61.6	61.6	61.6	29	29.0	1	3	248	0.00	30.060 
17:30	61.5	61.5	61.5	28	28.1	0	3	248	0.00	30.059 
17:35	61.2	61.2	61.2	28	27.8	0	2	248	0.00	30.059 
17:40	60.9	60.9	60.9	28	27.6	0	2	248	0.00	30.059 
17:45	60.5	60.5	60.5	29	28.1	0	1	248	0.00	30.061 
17:50	60.2	60.2	60.2	28	27.0	0	2	248	0.00	30.061 
17:55	59.9	59.9	59.9	29	27.6	0	2	248	0.00	30.061 
18:00	59.8	59.8	59.8	29	27.5	0	1	248	0.00	30.063 
18:05	59.5	59.5	59.5	29	27.2	0	1	248	0.00	30.063 
18:10	59.2	59.2	59.2	30	27.8	0	1	248	0.00	30.063 
18:15	58.9	58.9	58.9	30	27.5	0	3	248	0.00	30.070 
18:20	58.7	58.7	58.7	30	27.4	0	1	248	0.00	30.070 
18:25	58.6	58.6	58.6	30	27.3	0	2	248	0.00	30.070 
18:30	58.4	58.4	58.4	30	27.1	0	1	248	0.00	30.070 
18:35	58.1	58.1	58.1	30	26.8	0	2	248	0.00	30.070 
18:40	58.0	58.0	58.0	30	26.7	0	2	248	0.00	30.070 
18:45	58.0	58.0	58.0	30	26.7	0	2	248	0.00	30.071 
18:50	57.8	57.8	57.8	30	26.6	0	1	248	0.00	30.071 
18:55	57.6	57.6	57.6	31	27.2	0	1	248	0.00	30.071 
19:00	57.3	57.3	57.3	30	26.1	0	1	248	0.00	30.076 
19:05	57.2	57.2	57.2	31	26.8	0	1	248	0.00	30.076 
19:10	56.9	56.9	56.9	31	26.6	0	1	248	0.00	30.076 
19:15	56.6	56.6	56.6	31	26.3	0	1	248	0.00	30.076 
19:20	56.3	56.3	56.3	31	26.1	0	1	248	0.00	30.076 
19:25	56.2	56.2	56.2	32	26.7	0	0	---	0.00	30.076 
19:30	55.9	55.9	55.9	32	26.5	0	1	248	0.00	30.079 
19:35	55.7	55.7	55.7	32	26.3	0	1	248	0.00	30.079 
19:40	55.4	55.4	55.4	33	26.8	0	0	---	0.00	30.079 
19:45	55.1	55.1	55.1	33	26.5	0	1	248	0.00	30.083 
19:50	54.7	54.7	54.7	33	26.2	0	0	---	0.00	30.083 
19:55	54.4	54.4	54.4	35	27.3	0	1	248	0.00	30.083 
20:00	53.9	53.9	53.9	35	26.9	0	0	---	0.00	30.083 
20:05	53.5	53.5	53.5	36	27.2	0	0	---	0.00	30.083 
20:10	53.1	53.1	53.1	36	26.9	0	0	---	0.00	30.083 
20:15	52.6	52.6	52.6	37	27.1	0	0	---	0.00	30.081 
20:20	52.2	52.2	52.2	38	27.4	0	0	---	0.00	30.081 
20:25	51.9	51.9	51.9	39	27.7	0	0	---	0.00	30.081 
20:30	51.4	51.4	51.4	39	27.3	0	0	---	0.00	30.083 
20:35	51.1	51.1	51.1	39	27.0	0	0	---	0.00	30.083 
20:40	51.0	51.0	51.0	40	27.5	0	0	---	0.00	30.083 
20:45	50.8	50.8	50.8	40	27.4	0	0	---	0.00	30.086 
20:50	50.7	50.7	50.7	41	27.9	0	0	---	0.00	30.086 
20:55	50.4	50.4	50.4	40	27.0	0	0	---	0.00	30.086 
21:00	50.2	50.2	50.2	40	26.8	0	0	---	0.00	30.080 
21:05	50.1	50.1	50.1	40	26.7	0	0	---	0.00	30.080 
21:10	49.9	49.9	49.9	41	27.1	0	0	---	0.00	30.080 
21:15	49.8	49.8	49.8	41	27.1	0	0	---	0.00	30.070 
21:20	49.8	49.8	49.8	41	27.1	0	0	---	0.00	30.070 
21:25	49.6	49.6	49.6	41	26.9	0	0	---	0.00	30.070 
21:30	49.8	49.8	49.8	41	27.1	0	1	248	0.00	30.070 
21:35	49.9	49.9	49.9	41	27.1	0	1	248	0.00	30.070 
21:40	50.1	50.1	50.1	41	27.3	0	1	248	0.00	30.070 
21:45	50.4	50.4	50.4	40	27.0	0	1	248	0.00	30.072 
21:50	50.5	50.5	50.5	40	27.1	0	0	---	0.00	30.072 
21:55	50.8	50.8	50.8	39	26.7	0	1	248	0.00	30.072 
22:00	51.1	51.1	51.1	39	27.0	0	1	248	0.00	30.071 
22:05	51.6	51.6	51.6	39	27.5	0	1	248	0.00	30.071 
22:10	51.7	51.7	51.7	39	27.6	0	2	248	0.00	30.071 
22:15	52.0	52.0	52.0	38	27.2	0	2	248	0.00	30.065 
22:20	52.2	52.2	52.2	38	27.4	0	3	248	0.00	30.065 
22:25	52.5	52.5	52.5	38	27.6	0	2	248	0.00	30.065 
22:30	52.9	52.9	52.9	37	27.3	1	4	248	0.00	30.062 
22:35	53.3	53.3	53.3	36	27.0	1	5	248	0.00	30.062 
22:40	53.9	53.9	53.9	36	27.6	1	4	248	0.00	30.062 
22:45	54.2	54.2	54.2	35	27.2	1	4	248	0.00	30.056 
22:50	54.7	54.7	54.7	35	27.6	1	5	248	0.00	30.056 
22:55	55.1	55.1	55.1	34	27.2	2	6	248	0.00	30.056 
23:00	55.7	55.7	55.7	33	27.0	1	6	270	0.00	30.057 
23:05	56.2	56.2	56.2	32	26.7	1	4	248	0.00	30.057 
23:10	56.6	56.6	56.6	31	26.3	2	6	270	0.00	30.057 
23:15	56.9	56.9	56.9	31	26.6	2	7	248	0.00	30.049 
23:20	57.2	57.2	57.2	30	26.1	2	7	248	0.00	30.049 
23:25	57.3	57.3	57.3	30	26.1	2	7	270	0.00	30.049 
23:30	57.5	57.5	57.5	30	26.3	1	4	248	0.00	30.045 
23:35	57.5	57.5	57.5	30	26.3	1	5	270	0.00	30.045 
23:40	57.6	57.6	57.6	30	26.4	2	10	248	0.00	30.045 
23:45	57.8	57.8	57.8	31	27.4	1	5	248	0.00	30.042 
23:50	57.8	57.8	57.8	30	26.6	2	6	248	0.00	30.042 
23:55	58.0	58.0	58.0	31	27.5	1	3	270	0.00	30.042 

CoCoRaHS
IN-AL-39
A2 Web Hosting
Creative Commons License
GoDaddy
search engine by freefind advanced

loaded 2018-11-17 14:25:57 • last modified 2010-11-18 10:43:29
Privacy PolicyDisclaimer
• wx.awcolley.com is powered by PmWiki v.2002016 •
• all content (unless otherwise noted) © 2018 A W Colley